This is the latest recevied weather packets stored in our database for station/object NC4J. If no packets are shown the sender has not sent any weather packets the latest 10 day(s).
| Time | Temp. | Humidity | Pressure | Rain* | Wind** | Luminosity | Snow |
|---|---|---|---|---|---|---|---|
| 1777938422 | 20° C | 41% | 1015.2 hPa | 0 mm | - | 10 W/m² | - |
| 1777938119 | 20° C | 41% | 1015.2 hPa | 0 mm | - | 14 W/m² | - |
| 1777937814 | 20.56° C | 40% | 1015.2 hPa | 0 mm | - | 16 W/m² | - |
| 1777937510 | 20.56° C | 40% | 1015.3 hPa | 0 mm | - | 19 W/m² | - |
| 1777937208 | 20.56° C | 39% | 1015.1 hPa | 0 mm | - | 24 W/m² | - |
| 1777936905 | 21.11° C | 40% | 1014.9 hPa | 0 mm | - | 35 W/m² | - |
| 1777936602 | 21.11° C | 38% | 1015 hPa | 0 mm | - | 46 W/m² | - |
| 1777936298 | 21.11° C | 38% | 1015 hPa | 0 mm | - | 60 W/m² | - |
| 1777935994 | 21.11° C | 37% | 1015.1 hPa | 0 mm | - | 57 W/m² | - |
| 1777935693 | 21.11° C | 36% | 1014.8 hPa | 0 mm | - | 48 W/m² | - |
| 1777935391 | 21.67° C | 36% | 1014.9 hPa | 0 mm | - | 34 W/m² | - |
| 1777935087 | 21.67° C | 35% | 1014.7 hPa | 0 mm | - | 46 W/m² | - |
| 1777934784 | 21.67° C | 35% | 1014.7 hPa | 0 mm | - | 48 W/m² | - |
| 1777934481 | 21.67° C | 36% | 1014.8 hPa | 0 mm | - | 71 W/m² | - |
| 1777934178 | 21.67° C | 35% | 1014.7 hPa | 0 mm | - | 57 W/m² | - |
| 1777933874 | 22.22° C | 34% | 1014.6 hPa | 0 mm | - | 59 W/m² | - |
| 1777933571 | 22.22° C | 34% | 1014.8 hPa | 0 mm | - | 49 W/m² | - |
| 1777933268 | 22.22° C | 35% | 1015 hPa | 0 mm | - | 57 W/m² | - |
| 1777932965 | 22.22° C | 34% | 1014.8 hPa | 0 mm | - | 96 W/m² | - |
| 1777932662 | 22.22° C | 34% | 1014.9 hPa | 0 mm | - | 98 W/m² | - |
| 1777932358 | 22.22° C | 34% | 1014.9 hPa | 0 mm | - | 105 W/m² | - |
| 1777932055 | 22.78° C | 33% | 1014.8 hPa | 0 mm | - | 109 W/m² | - |
| 1777931752 | 23.33° C | 32% | 1014.9 hPa | 0 mm | - | 122 W/m² | - |
| 1777931450 | 22.78° C | 35% | 1014.9 hPa | 0 mm | - | 231 W/m² | - |
| 1777931145 | 23.33° C | 30% | 1014.8 hPa | 0 mm | - | 141 W/m² | - |
* Rain latest hour (hover to see other rain measurements)
** Current wind speed in m/s (hover to see current wind gust speed)